createdAt,value
2019-02-18T00:01:21.456Z,2.10
2019-02-18T00:03:41.752Z,1.90
2019-02-18T00:06:02.065Z,1.90
2019-02-18T00:08:22.407Z,2.00
2019-02-18T00:10:42.698Z,1.90
2019-02-18T00:13:03.111Z,1.60
2019-02-18T00:15:23.659Z,1.60
2019-02-18T00:17:43.939Z,1.60
2019-02-18T00:20:04.719Z,1.70
2019-02-18T00:22:25.079Z,1.90
2019-02-18T00:24:45.375Z,1.80
2019-02-18T00:27:05.659Z,1.60
2019-02-18T00:29:26.000Z,1.30
2019-02-18T00:31:46.386Z,1.50
2019-02-18T00:34:06.697Z,1.70
2019-02-18T00:36:27.356Z,1.70
2019-02-18T00:38:47.660Z,1.70
2019-02-18T00:41:08.038Z,1.60
2019-02-18T00:43:28.303Z,1.40
2019-02-18T00:45:48.620Z,1.10
2019-02-18T00:48:08.950Z,1.30
2019-02-18T00:50:29.285Z,1.40
2019-02-18T00:52:49.575Z,1.50
2019-02-18T00:55:09.928Z,1.30
2019-02-18T00:57:30.198Z,1.40
2019-02-18T00:59:50.517Z,1.50
2019-02-18T01:02:10.864Z,1.50
2019-02-18T01:04:31.138Z,1.50
2019-02-18T01:06:51.432Z,1.60
2019-02-18T01:09:12.804Z,1.40
2019-02-18T01:11:33.083Z,1.00
2019-02-18T01:13:53.464Z,1.20
2019-02-18T01:16:13.726Z,1.30
2019-02-18T01:18:34.099Z,1.30
2019-02-18T01:20:54.470Z,1.40
2019-02-18T01:23:14.753Z,1.40
2019-02-18T01:25:35.188Z,1.20
2019-02-18T01:27:55.515Z,1.30
2019-02-18T01:30:16.914Z,1.30
2019-02-18T01:32:37.224Z,1.40
2019-02-18T01:34:57.511Z,1.30
2019-02-18T01:37:17.782Z,1.20
2019-02-18T01:39:39.152Z,1.20
2019-02-18T01:41:59.520Z,1.10
2019-02-18T01:44:19.898Z,1.10
2019-02-18T01:46:40.246Z,1.20
2019-02-18T01:49:00.518Z,1.20
2019-02-18T01:51:21.020Z,1.10
2019-02-18T01:53:41.364Z,1.20
2019-02-18T01:56:01.687Z,1.00
2019-02-18T01:58:22.059Z,0.90
2019-02-18T02:00:42.349Z,1.00
2019-02-18T02:03:02.736Z,1.10
2019-02-18T02:05:23.087Z,1.20
2019-02-18T02:07:43.424Z,1.10
2019-02-18T02:10:06.020Z,1.20
2019-02-18T02:12:25.991Z,1.20
2019-02-18T02:14:46.361Z,1.10
2019-02-18T02:17:06.753Z,1.10
2019-02-18T02:19:27.021Z,1.00
2019-02-18T02:21:47.276Z,0.90
2019-02-18T02:24:07.568Z,0.80
2019-02-18T02:26:27.877Z,0.90
2019-02-18T02:28:48.254Z,1.00
2019-02-18T02:31:08.560Z,1.10
2019-02-18T02:33:28.943Z,0.90
2019-02-18T02:35:49.362Z,0.60
2019-02-18T02:38:09.689Z,0.80
2019-02-18T02:40:29.944Z,1.00
2019-02-18T02:42:50.294Z,1.00
2019-02-18T02:45:10.599Z,1.00
2019-02-18T02:47:30.960Z,0.90
2019-02-18T02:49:51.236Z,0.80
2019-02-18T02:52:11.508Z,0.80
2019-02-18T02:54:31.884Z,0.70
2019-02-18T02:56:52.164Z,0.70
2019-02-18T02:59:12.530Z,0.50
2019-02-18T03:01:32.888Z,0.40
2019-02-18T03:03:53.224Z,0.20
2019-02-18T03:06:13.525Z,0.30
2019-02-18T03:08:33.859Z,0.20
2019-02-18T03:10:54.272Z,0.20
2019-02-18T03:13:14.604Z,0.30
2019-02-18T03:15:34.973Z,0.60
2019-02-18T03:17:55.317Z,0.80
2019-02-18T03:20:15.611Z,0.70
2019-02-18T03:22:35.918Z,0.70
2019-02-18T03:25:18.329Z,0.60
2019-02-18T03:27:38.662Z,0.40
2019-02-18T03:30:24.804Z,0.50
2019-02-18T03:32:45.188Z,0.50
2019-02-18T03:35:06.034Z,0.40
2019-02-18T03:37:26.309Z,0.50
2019-02-18T03:39:46.684Z,0.60
2019-02-18T03:42:06.941Z,0.50
2019-02-18T03:44:27.203Z,0.50
2019-02-18T03:46:50.513Z,0.30
2019-02-18T03:49:09.150Z,0.40
2019-02-18T03:51:29.425Z,0.30
2019-02-18T03:53:49.727Z,0.40
2019-02-18T03:56:10.015Z,0.40
2019-02-18T03:58:30.345Z,0.40
2019-02-18T04:00:50.715Z,0.50
2019-02-18T04:03:10.986Z,0.30
2019-02-18T04:05:32.326Z,0.40
2019-02-18T04:07:52.586Z,0.40
2019-02-18T04:10:12.859Z,0.40
2019-02-18T04:12:33.318Z,0.50
2019-02-18T04:14:53.660Z,0.50
2019-02-18T04:17:14.006Z,0.40
2019-02-18T04:19:34.315Z,0.20
2019-02-18T04:21:54.615Z,0.30
2019-02-18T04:24:14.947Z,0.30
2019-02-18T04:26:35.261Z,0.40
2019-02-18T04:28:55.566Z,0.20
2019-02-18T04:31:15.855Z,0.20
2019-02-18T04:33:36.208Z,0.20
2019-02-18T04:35:56.635Z,0.30
2019-02-18T04:38:16.985Z,0.30
2019-02-18T04:40:38.444Z,0.30
2019-02-18T04:42:58.748Z,0.20
2019-02-18T04:45:19.113Z,0.30
2019-02-18T04:47:39.494Z,0.30
2019-02-18T04:49:59.797Z,0.40
2019-02-18T04:52:20.278Z,0.30
2019-02-18T04:54:40.649Z,0.20
2019-02-18T04:57:00.980Z,0.20
2019-02-18T04:59:21.357Z,0.10
2019-02-18T05:01:41.705Z,0.00
2019-02-18T05:04:02.051Z,0.00
2019-02-18T05:06:22.616Z,0.10
2019-02-18T05:08:42.972Z,0.10
2019-02-18T05:11:03.257Z,0.10
2019-02-18T05:13:23.633Z,0.20
2019-02-18T05:15:44.041Z,0.20
2019-02-18T05:18:04.396Z,0.10
2019-02-18T05:20:24.697Z,0.10
2019-02-18T05:22:45.042Z,0.10
2019-02-18T05:25:07.517Z,0.10
2019-02-18T05:27:33.223Z,0.00
2019-02-18T05:29:49.680Z,0.10
2019-02-18T05:32:10.003Z,0.10
2019-02-18T05:34:30.387Z,0.10
2019-02-18T05:36:50.765Z,0.10
2019-02-18T05:39:18.200Z,0.10
2019-02-18T05:41:33.347Z,0.20
2019-02-18T05:43:53.723Z,-0.10
2019-02-18T05:46:14.450Z,-0.20
2019-02-18T05:48:34.839Z,-0.30
2019-02-18T05:50:55.198Z,-0.10
2019-02-18T05:53:15.492Z,0.00
2019-02-18T05:55:35.792Z,0.00
2019-02-18T05:57:56.144Z,0.00
2019-02-18T06:00:16.870Z,0.00
2019-02-18T06:02:37.401Z,0.10
2019-02-18T06:04:57.678Z,0.00
2019-02-18T06:07:18.047Z,0.00
2019-02-18T06:09:38.444Z,0.00
2019-02-18T06:11:58.744Z,0.10
2019-02-18T06:14:19.200Z,-0.10
2019-02-18T06:16:39.524Z,0.00
2019-02-18T06:18:59.895Z,0.10
2019-02-18T06:21:20.329Z,0.10
2019-02-18T06:23:40.679Z,0.10
2019-02-18T06:26:01.063Z,0.10
2019-02-18T06:28:21.462Z,0.20
2019-02-18T06:30:42.098Z,0.30
2019-02-18T06:33:02.434Z,0.20
2019-02-18T06:35:22.809Z,0.30
2019-02-18T06:37:43.198Z,0.40
2019-02-18T06:40:06.986Z,0.60
2019-02-18T06:42:26.971Z,0.70
2019-02-18T06:44:48.953Z,0.80
2019-02-18T06:47:10.134Z,0.90
2019-02-18T06:49:30.532Z,1.40
2019-02-18T06:51:50.926Z,1.70
2019-02-18T06:54:11.239Z,1.80
2019-02-18T06:56:33.303Z,1.60
2019-02-18T06:58:55.254Z,1.50
2019-02-18T07:01:22.947Z,1.50
2019-02-18T07:03:56.582Z,1.60
2019-02-18T07:06:33.998Z,1.70
2019-02-18T07:09:04.890Z,1.40
2019-02-18T07:11:29.575Z,1.60
2019-02-18T07:13:49.841Z,2.20
2019-02-18T07:16:10.144Z,3.60
2019-02-18T07:18:30.408Z,4.80
2019-02-18T07:20:50.767Z,5.00
2019-02-18T07:23:12.027Z,5.80
2019-02-18T07:25:32.328Z,6.80
2019-02-18T07:27:52.699Z,7.00
2019-02-18T07:30:13.567Z,7.10
2019-02-18T07:32:33.875Z,7.10
2019-02-18T07:34:54.139Z,9.40
2019-02-18T07:37:14.567Z,10.20
2019-02-18T07:39:34.941Z,9.00
2019-02-18T07:41:55.305Z,8.90
2019-02-18T07:44:15.611Z,10.50
2019-02-18T07:46:36.818Z,10.80
2019-02-18T07:48:57.100Z,12.80
2019-02-18T07:51:17.457Z,14.90
2019-02-18T07:53:37.758Z,15.80
2019-02-18T07:55:57.463Z,17.10
2019-02-18T07:58:17.203Z,16.20
2019-02-18T08:00:36.938Z,16.10
2019-02-18T08:02:56.732Z,15.60
2019-02-18T08:05:16.729Z,14.70
2019-02-18T08:07:38.338Z,15.60
2019-02-18T08:09:58.388Z,16.20
2019-02-18T08:12:18.375Z,15.20
2019-02-18T08:14:38.816Z,15.70
2019-02-18T08:16:58.937Z,15.10
2019-02-18T08:19:19.043Z,15.40
2019-02-18T08:21:39.073Z,14.30
2019-02-18T08:24:00.490Z,13.50
2019-02-18T08:26:20.600Z,14.10
2019-02-18T08:28:40.590Z,13.70
2019-02-18T08:31:00.717Z,15.00
2019-02-18T08:33:20.845Z,17.40
2019-02-18T08:35:40.990Z,16.70
2019-02-18T08:38:01.267Z,14.70
2019-02-18T08:40:22.724Z,15.20
2019-02-18T08:42:43.146Z,15.20
2019-02-18T08:45:03.018Z,13.10
2019-02-18T08:47:22.730Z,12.50
2019-02-18T08:49:42.468Z,11.70
2019-02-18T08:52:02.810Z,11.60
2019-02-18T08:54:23.272Z,11.70
2019-02-18T08:56:43.048Z,11.80
2019-02-18T08:59:03.463Z,12.60
2019-02-18T09:01:23.774Z,12.50
2019-02-18T09:03:44.121Z,12.60
2019-02-18T09:06:04.424Z,12.60
2019-02-18T09:08:24.232Z,11.20
2019-02-18T09:10:43.941Z,11.20
2019-02-18T09:13:04.301Z,12.60
2019-02-18T09:15:24.674Z,13.40
2019-02-18T09:17:44.961Z,12.60
2019-02-18T09:20:07.057Z,11.90
2019-02-18T09:22:29.058Z,14.80
2019-02-18T09:24:53.955Z,13.40
2019-02-18T09:27:14.349Z,16.00
2019-02-18T09:29:34.076Z,14.10
2019-02-18T09:31:55.356Z,13.80
2019-02-18T09:34:15.147Z,13.80
2019-02-18T09:36:34.892Z,13.10
2019-02-18T09:38:54.595Z,15.10
2019-02-18T09:41:15.320Z,14.20
2019-02-18T09:43:35.685Z,16.00
2019-02-18T09:45:55.462Z,15.80
2019-02-18T09:48:15.225Z,15.10
2019-02-18T09:50:35.572Z,14.90
2019-02-18T09:52:55.937Z,16.60
2019-02-18T09:55:17.100Z,17.00
2019-02-18T09:57:37.259Z,18.00
2019-02-18T09:59:58.331Z,18.40
2019-02-18T10:02:18.404Z,16.80
2019-02-18T10:04:38.644Z,17.10
2019-02-18T10:06:58.631Z,16.40
2019-02-18T10:09:18.688Z,17.00
2019-02-18T10:11:38.849Z,15.10
2019-02-18T10:13:58.827Z,15.30
2019-02-18T10:16:18.882Z,16.70
2019-02-18T10:18:38.906Z,16.90
2019-02-18T10:20:58.994Z,17.80
2019-02-18T10:23:18.969Z,16.90
2019-02-18T10:25:38.942Z,18.40
2019-02-18T10:27:58.976Z,19.40
2019-02-18T10:30:20.759Z,18.30
2019-02-18T10:32:40.939Z,19.70
2019-02-18T10:35:01.080Z,19.30
2019-02-18T10:37:21.242Z,17.90
2019-02-18T10:39:41.415Z,19.50
2019-02-18T10:42:01.575Z,17.80
2019-02-18T10:44:21.680Z,17.10
2019-02-18T10:46:41.690Z,17.50
2019-02-18T10:49:01.753Z,19.40
2019-02-18T10:51:21.815Z,17.30
2019-02-18T10:53:41.966Z,18.90
2019-02-18T10:56:02.163Z,21.00
2019-02-18T10:58:22.298Z,22.50
2019-02-18T11:00:42.404Z,22.40
2019-02-18T11:03:02.446Z,21.10
2019-02-18T11:05:22.525Z,20.40
2019-02-18T11:07:42.601Z,19.70
2019-02-18T11:10:02.808Z,21.40
2019-02-18T11:12:23.006Z,23.40
2019-02-18T11:14:43.100Z,21.60
2019-02-18T11:17:03.229Z,21.70
2019-02-18T11:19:23.315Z,21.70
2019-02-18T11:21:43.409Z,23.70
2019-02-18T11:24:03.533Z,22.50
2019-02-18T11:26:23.612Z,22.50
2019-02-18T11:28:44.102Z,23.00
2019-02-18T11:31:04.142Z,24.10
2019-02-18T11:33:24.192Z,24.60
2019-02-18T11:35:44.207Z,23.50
2019-02-18T11:38:04.263Z,23.40
2019-02-18T11:40:24.514Z,22.20
2019-02-18T11:42:44.812Z,24.60
2019-02-18T11:45:07.391Z,24.60
2019-02-18T11:47:27.443Z,23.70
2019-02-18T11:49:47.252Z,25.10
2019-02-18T11:52:07.025Z,24.10
2019-02-18T11:54:26.824Z,22.90
2019-02-18T11:56:46.892Z,23.70
2019-02-18T11:59:06.976Z,22.90
2019-02-18T12:01:28.470Z,23.90
2019-02-18T12:03:48.650Z,23.80
2019-02-18T12:06:08.723Z,23.30
2019-02-18T12:08:28.777Z,23.40
2019-02-18T12:10:48.824Z,24.10
2019-02-18T12:13:08.925Z,24.60
2019-02-18T12:15:28.982Z,24.80
2019-02-18T12:17:49.098Z,25.90
2019-02-18T12:20:13.621Z,25.00
2019-02-18T12:22:33.683Z,24.80
2019-02-18T12:24:54.674Z,24.60
2019-02-18T12:27:14.788Z,24.70
2019-02-18T12:29:34.830Z,23.90
2019-02-18T12:31:54.922Z,23.60
2019-02-18T12:34:15.007Z,23.50
2019-02-18T12:36:35.080Z,24.30
2019-02-18T12:39:04.575Z,24.40
2019-02-18T12:41:24.896Z,24.40
2019-02-18T12:43:44.975Z,23.90
2019-02-18T12:46:15.329Z,23.80
2019-02-18T12:48:26.732Z,24.80
2019-02-18T12:50:47.869Z,26.70
2019-02-18T12:53:08.003Z,25.50
2019-02-18T12:55:28.281Z,24.60
2019-02-18T12:57:48.680Z,25.40
2019-02-18T13:00:11.663Z,25.50
2019-02-18T13:02:31.013Z,24.40
2019-02-18T13:04:50.637Z,24.00
2019-02-18T13:07:11.674Z,23.90
2019-02-18T13:09:31.752Z,24.40
2019-02-18T13:11:58.744Z,24.70
2019-02-18T13:14:13.577Z,27.70
2019-02-18T13:16:33.681Z,26.00
2019-02-18T13:18:53.755Z,26.60
2019-02-18T13:21:13.804Z,24.80
2019-02-18T13:23:33.857Z,23.80
2019-02-18T13:25:53.932Z,26.00
2019-02-18T13:28:14.098Z,26.80
2019-02-18T13:30:34.197Z,26.30
2019-02-18T13:32:54.234Z,24.20
2019-02-18T13:35:14.301Z,23.30
2019-02-18T13:37:34.354Z,22.90
2019-02-18T13:39:54.412Z,24.20
2019-02-18T13:42:14.584Z,26.30
2019-02-18T13:44:34.916Z,24.90
2019-02-18T13:46:54.966Z,24.00
2019-02-18T13:49:15.046Z,24.60
2019-02-18T13:51:35.144Z,25.20
2019-02-18T13:53:55.224Z,24.10
2019-02-18T13:56:15.306Z,24.00
2019-02-18T13:58:37.005Z,24.70
2019-02-18T14:00:57.367Z,26.20
2019-02-18T14:03:17.641Z,25.70
2019-02-18T14:05:37.787Z,24.70
2019-02-18T14:07:57.857Z,25.10
2019-02-18T14:10:17.995Z,26.40
2019-02-18T14:12:38.061Z,25.40
2019-02-18T14:14:58.146Z,24.60
2019-02-18T14:17:18.189Z,24.10
2019-02-18T14:19:38.274Z,23.30
2019-02-18T14:21:58.329Z,23.70
2019-02-18T14:24:18.438Z,23.20
2019-02-18T14:26:38.524Z,25.00
2019-02-18T14:28:58.634Z,23.30
2019-02-18T14:31:18.693Z,22.50
2019-02-18T14:33:39.842Z,23.30
2019-02-18T14:35:59.891Z,23.00
2019-02-18T14:38:22.219Z,23.10
2019-02-18T14:40:42.302Z,23.60
2019-02-18T14:43:02.349Z,21.70
2019-02-18T14:45:22.427Z,22.00
2019-02-18T14:47:42.502Z,22.80
2019-02-18T14:50:02.558Z,22.70
2019-02-18T14:52:22.622Z,22.50
2019-02-18T14:54:42.709Z,22.00
2019-02-18T14:57:03.837Z,21.00
2019-02-18T14:59:24.082Z,20.00
2019-02-18T15:01:45.130Z,19.40
2019-02-18T15:04:05.567Z,17.80
2019-02-18T15:06:25.805Z,17.20
2019-02-18T15:08:46.023Z,17.20
2019-02-18T15:11:06.111Z,16.80
2019-02-18T15:13:26.152Z,16.40
2019-02-18T15:15:46.204Z,16.00
2019-02-18T15:18:06.578Z,16.00
2019-02-18T15:20:26.954Z,15.70
2019-02-18T15:22:46.725Z,15.30
2019-02-18T15:25:08.889Z,14.90
2019-02-18T15:27:28.959Z,14.70
2019-02-18T15:29:48.735Z,14.50
2019-02-18T15:32:08.671Z,14.70
2019-02-18T15:34:29.444Z,14.40
2019-02-18T15:36:49.784Z,14.50
2019-02-18T15:39:09.590Z,14.50
2019-02-18T15:41:29.383Z,14.50
2019-02-18T15:43:49.162Z,14.40
2019-02-18T15:46:09.611Z,14.30
2019-02-18T15:48:29.516Z,14.30
2019-02-18T15:50:49.405Z,14.10
2019-02-18T15:53:09.215Z,14.00
2019-02-18T15:55:29.565Z,13.90
2019-02-18T15:57:49.489Z,14.00
2019-02-18T16:00:22.207Z,13.90
2019-02-18T16:02:43.523Z,13.80
2019-02-18T16:05:05.532Z,13.70
2019-02-18T16:07:25.904Z,13.50
2019-02-18T16:09:46.241Z,13.40
2019-02-18T16:12:06.179Z,13.40
2019-02-18T16:14:26.563Z,13.30
2019-02-18T16:16:46.978Z,13.10
2019-02-18T16:19:07.314Z,13.00
2019-02-18T16:21:27.676Z,12.70
2019-02-18T16:23:48.071Z,12.70
2019-02-18T16:26:07.833Z,12.50
2019-02-18T16:28:28.169Z,12.40
2019-02-18T16:30:48.940Z,12.20
2019-02-18T16:33:09.290Z,12.20
2019-02-18T16:35:29.969Z,12.20
2019-02-18T16:37:50.306Z,12.00
2019-02-18T16:40:18.286Z,11.90
2019-02-18T16:42:39.623Z,11.80
2019-02-18T16:44:59.963Z,11.70
2019-02-18T16:47:20.334Z,11.40
2019-02-18T16:49:40.875Z,11.30
2019-02-18T16:52:01.543Z,11.00
2019-02-18T16:54:21.900Z,10.80
2019-02-18T16:56:42.260Z,10.70
2019-02-18T16:59:02.606Z,10.60
2019-02-18T17:01:22.981Z,10.60
2019-02-18T17:03:44.433Z,10.50
2019-02-18T17:06:04.767Z,10.40
2019-02-18T17:08:25.138Z,10.40
2019-02-18T17:10:45.545Z,10.30
2019-02-18T17:13:08.212Z,10.00
2019-02-18T17:15:27.947Z,9.90
2019-02-18T17:17:48.289Z,9.90
2019-02-18T17:20:08.914Z,9.80
2019-02-18T17:22:29.300Z,9.70
2019-02-18T17:24:49.656Z,9.60
2019-02-18T17:27:10.000Z,9.60
2019-02-18T17:29:30.385Z,9.50
2019-02-18T17:31:50.744Z,9.30
2019-02-18T17:34:11.099Z,9.20
2019-02-18T17:36:31.463Z,9.20
2019-02-18T17:38:51.885Z,9.00
2019-02-18T17:41:12.296Z,9.00
2019-02-18T17:43:32.641Z,8.90
2019-02-18T17:45:53.034Z,8.70
2019-02-18T17:48:13.410Z,8.70
2019-02-18T17:50:33.752Z,8.60
2019-02-18T17:52:54.516Z,8.50
2019-02-18T17:55:16.589Z,8.40
2019-02-18T17:57:36.927Z,8.40
2019-02-18T17:59:57.342Z,8.30
2019-02-18T18:02:17.819Z,8.10
2019-02-18T18:04:38.163Z,8.00
2019-02-18T18:06:58.501Z,8.00
2019-02-18T18:09:18.862Z,7.90
2019-02-18T18:11:40.165Z,7.90
2019-02-18T18:14:00.523Z,7.90
2019-02-18T18:16:20.906Z,7.70
2019-02-18T18:18:41.330Z,7.60
2019-02-18T18:21:01.802Z,7.60
2019-02-18T18:23:22.131Z,7.60
2019-02-18T18:25:42.548Z,7.50
2019-02-18T18:28:02.901Z,7.30
2019-02-18T18:30:23.311Z,7.30
2019-02-18T18:32:45.194Z,7.30
2019-02-18T18:35:08.603Z,7.10
2019-02-18T18:37:28.395Z,7.00
2019-02-18T18:39:48.741Z,7.00
2019-02-18T18:42:09.120Z,7.10
2019-02-18T18:44:29.498Z,6.90
2019-02-18T18:46:50.133Z,7.00
2019-02-18T18:49:10.848Z,6.80
2019-02-18T18:51:31.459Z,6.70
2019-02-18T18:53:51.818Z,6.70
2019-02-18T18:56:12.209Z,6.60
2019-02-18T18:58:32.568Z,6.60
2019-02-18T19:00:53.012Z,6.50
2019-02-18T19:03:13.552Z,6.50
2019-02-18T19:05:33.941Z,6.30
2019-02-18T19:07:54.293Z,6.20
2019-02-18T19:10:14.834Z,6.10
2019-02-18T19:12:35.181Z,6.10
2019-02-18T19:14:55.518Z,6.10
2019-02-18T19:17:15.885Z,6.00
2019-02-18T19:19:36.211Z,6.00
2019-02-18T19:21:56.614Z,6.00
2019-02-18T19:24:16.911Z,6.10
2019-02-18T19:26:37.346Z,6.00
2019-02-18T19:28:57.783Z,5.90
2019-02-18T19:31:18.204Z,6.00
2019-02-18T19:33:38.526Z,6.00
2019-02-18T19:35:58.909Z,5.70
2019-02-18T19:38:19.252Z,5.60
2019-02-18T19:40:39.894Z,5.70
2019-02-18T19:43:00.514Z,5.40
2019-02-18T19:45:23.180Z,5.30
2019-02-18T19:47:43.225Z,5.30
2019-02-18T19:50:04.787Z,5.30
2019-02-18T19:52:25.180Z,5.40
2019-02-18T19:54:45.837Z,5.20
2019-02-18T19:57:06.288Z,5.20
2019-02-18T19:59:26.678Z,5.00
2019-02-18T20:01:47.112Z,4.80
2019-02-18T20:04:07.459Z,4.80
2019-02-18T20:06:27.858Z,4.80
2019-02-18T20:08:48.198Z,4.60
2019-02-18T20:11:08.531Z,4.60
2019-02-18T20:13:28.939Z,4.70
2019-02-18T20:15:49.274Z,4.90
2019-02-18T20:18:09.615Z,4.80
2019-02-18T20:20:30.073Z,4.80
2019-02-18T20:22:50.500Z,4.70
2019-02-18T20:25:12.071Z,4.50
2019-02-18T20:27:32.378Z,4.50
2019-02-18T20:29:54.232Z,4.40
2019-02-18T20:32:14.775Z,4.30
2019-02-18T20:34:35.291Z,4.40
2019-02-18T20:36:55.628Z,4.30
2019-02-18T20:39:15.902Z,4.40
2019-02-18T20:41:36.337Z,4.50
2019-02-18T20:43:56.707Z,4.40
2019-02-18T20:46:17.065Z,4.40
2019-02-18T20:48:37.410Z,4.40
2019-02-18T20:50:57.773Z,4.30
2019-02-18T20:53:18.122Z,4.20
2019-02-18T20:55:38.540Z,4.30
2019-02-18T20:57:58.838Z,4.10
2019-02-18T21:00:20.769Z,3.90
2019-02-18T21:02:41.322Z,3.70
2019-02-18T21:05:01.652Z,3.80
2019-02-18T21:07:22.078Z,3.40
2019-02-18T21:09:42.423Z,3.30
2019-02-18T21:12:02.752Z,3.30
2019-02-18T21:14:23.133Z,3.40
2019-02-18T21:16:43.534Z,3.50
2019-02-18T21:19:03.843Z,3.80
2019-02-18T21:21:24.217Z,3.90
2019-02-18T21:23:44.607Z,3.80
2019-02-18T21:26:05.318Z,3.70
2019-02-18T21:28:25.930Z,3.50
2019-02-18T21:30:46.413Z,3.50
2019-02-18T21:33:06.726Z,3.60
2019-02-18T21:35:27.156Z,3.70
2019-02-18T21:37:47.540Z,3.50
2019-02-18T21:40:09.943Z,3.50
2019-02-18T21:42:29.657Z,3.00
2019-02-18T21:44:50.835Z,2.90
2019-02-18T21:47:11.173Z,2.80
2019-02-18T21:49:31.615Z,3.10
2019-02-18T21:51:51.945Z,3.20
2019-02-18T21:54:12.464Z,3.20
2019-02-18T21:56:32.803Z,3.30
2019-02-18T21:58:53.147Z,3.00
2019-02-18T22:01:13.528Z,3.10
2019-02-18T22:03:33.910Z,3.10
2019-02-18T22:05:54.235Z,3.20
2019-02-18T22:08:14.629Z,3.00
2019-02-18T22:10:34.962Z,3.00
2019-02-18T22:12:55.316Z,2.90
2019-02-18T22:15:15.694Z,2.80
2019-02-18T22:17:36.062Z,3.00
2019-02-18T22:19:56.407Z,3.00
2019-02-18T22:22:16.751Z,2.90
2019-02-18T22:24:37.118Z,2.90
2019-02-18T22:26:57.453Z,2.90
2019-02-18T22:29:17.995Z,2.90
2019-02-18T22:31:38.654Z,3.00
2019-02-18T22:33:59.290Z,2.80
2019-02-18T22:36:19.731Z,2.60
2019-02-18T22:38:40.083Z,2.80
2019-02-18T22:41:00.436Z,2.90
2019-02-18T22:43:20.798Z,2.80
2019-02-18T22:45:41.143Z,2.80
2019-02-18T22:48:01.505Z,2.70
2019-02-18T22:50:21.901Z,2.60
2019-02-18T22:52:42.228Z,2.70
2019-02-18T22:55:02.575Z,2.80
2019-02-18T22:57:22.869Z,2.80
2019-02-18T22:59:43.224Z,2.70
2019-02-18T23:02:03.562Z,2.60
2019-02-18T23:04:23.950Z,2.50
2019-02-18T23:06:44.295Z,2.60
2019-02-18T23:09:04.646Z,2.50
2019-02-18T23:11:24.949Z,2.40
2019-02-18T23:13:45.318Z,2.40
2019-02-18T23:16:05.649Z,2.40
2019-02-18T23:18:26.076Z,2.50
2019-02-18T23:20:46.417Z,2.50
2019-02-18T23:23:06.765Z,2.50
2019-02-18T23:25:27.110Z,2.40
2019-02-18T23:27:47.443Z,2.60
2019-02-18T23:30:08.056Z,2.50
2019-02-18T23:32:28.391Z,2.40
2019-02-18T23:34:48.691Z,2.30
2019-02-18T23:37:09.017Z,2.30
2019-02-18T23:39:29.284Z,2.20
2019-02-18T23:41:49.604Z,2.30
2019-02-18T23:44:09.947Z,2.00
2019-02-18T23:46:30.466Z,2.10
2019-02-18T23:48:51.070Z,2.00
2019-02-18T23:51:11.472Z,2.10
2019-02-18T23:53:31.825Z,2.20
2019-02-18T23:55:52.129Z,2.20
2019-02-18T23:58:12.480Z,2.10
